createdAt,value
2023-03-19T00:00:33.902Z,95077.78
2023-03-19T00:03:01.938Z,95079.06
2023-03-19T00:05:29.927Z,95078.38
2023-03-19T00:07:59.074Z,95076.56
2023-03-19T00:10:27.000Z,95081.66
2023-03-19T00:12:54.935Z,95069.66
2023-03-19T00:15:22.896Z,95065.78
2023-03-19T00:17:52.529Z,95073.03
2023-03-19T00:20:22.211Z,95078.06
2023-03-19T00:22:50.149Z,95069.31
2023-03-19T00:25:18.253Z,95070.16
2023-03-19T00:27:46.281Z,95060.81
2023-03-19T00:30:15.080Z,95052.47
2023-03-19T00:32:43.036Z,95045.75
2023-03-19T00:35:12.598Z,95064.25
2023-03-19T00:37:41.194Z,95049.31
2023-03-19T00:40:11.974Z,95056.84
2023-03-19T00:42:39.974Z,95052.19
2023-03-19T00:45:09.101Z,95047.66
2023-03-19T00:47:38.350Z,95034.25
2023-03-19T00:50:07.144Z,95039.94
2023-03-19T00:52:36.411Z,95044.22
2023-03-19T00:55:04.416Z,95039.22
2023-03-19T00:57:32.378Z,95042.25
2023-03-19T01:00:00.270Z,95037.56
2023-03-19T01:02:28.286Z,95034.81
2023-03-19T01:04:56.247Z,95040.81
2023-03-19T01:07:24.223Z,95030.50
2023-03-19T01:09:53.585Z,95029.16
2023-03-19T01:12:21.547Z,95037.69
2023-03-19T01:14:49.477Z,95039.69
2023-03-19T01:17:17.478Z,95024.03
2023-03-19T01:19:45.436Z,95030.63
2023-03-19T01:22:14.254Z,95032.34
2023-03-19T01:24:42.127Z,95028.16
2023-03-19T01:27:11.920Z,95032.78
2023-03-19T01:29:39.936Z,95020.91
2023-03-19T01:32:08.049Z,95023.91
2023-03-19T01:34:36.714Z,95021.16
2023-03-19T01:37:04.613Z,95020.22
2023-03-19T01:39:32.826Z,95021.25
2023-03-19T01:42:03.166Z,95015.72
2023-03-19T01:44:33.897Z,95025.38
2023-03-19T01:47:04.765Z,95024.66
2023-03-19T01:49:32.893Z,95015.13
2023-03-19T01:52:03.923Z,95038.09
2023-03-19T01:54:33.526Z,95030.59
2023-03-19T01:57:06.973Z,95037.88
2023-03-19T01:59:38.879Z,95010.03
2023-03-19T02:02:12.158Z,95039.09
2023-03-19T02:04:42.885Z,95026.00
2023-03-19T02:07:12.645Z,95034.81
2023-03-19T02:09:42.066Z,95031.00
2023-03-19T02:12:10.899Z,95039.63
2023-03-19T02:14:40.315Z,95036.75
2023-03-19T02:17:08.833Z,95034.91
2023-03-19T02:19:50.542Z,95017.59
2023-03-19T02:22:22.707Z,95028.78
2023-03-19T02:24:55.027Z,95020.88
2023-03-19T02:27:24.623Z,95025.59
2023-03-19T02:29:52.562Z,95031.94
2023-03-19T02:32:20.562Z,95020.88
2023-03-19T02:34:49.468Z,95034.06
2023-03-19T02:37:22.108Z,95029.66
2023-03-19T02:39:55.889Z,95042.03
2023-03-19T02:42:28.094Z,95038.28
2023-03-19T02:44:56.481Z,95041.75
2023-03-19T02:47:25.183Z,95014.81
2023-03-19T02:49:53.059Z,95038.97
2023-03-19T02:52:21.532Z,95037.53
2023-03-19T02:54:49.577Z,95017.19
2023-03-19T02:57:17.724Z,95047.50
2023-03-19T02:59:47.822Z,95041.75
2023-03-19T03:02:15.835Z,95040.63
2023-03-19T03:04:43.811Z,95050.03
2023-03-19T03:07:12.264Z,95041.25
2023-03-19T03:09:40.244Z,95028.63
2023-03-19T03:12:08.933Z,95046.88
2023-03-19T03:14:36.898Z,95026.38
2023-03-19T03:17:06.157Z,95053.63
2023-03-19T03:19:34.216Z,95055.97
2023-03-19T03:22:02.138Z,95057.72
2023-03-19T03:24:30.334Z,95062.41
2023-03-19T03:26:58.277Z,95057.72
2023-03-19T03:29:26.770Z,95023.88
2023-03-19T03:31:54.798Z,95059.81
2023-03-19T03:34:24.194Z,95069.66
2023-03-19T03:36:52.197Z,95064.75
2023-03-19T03:39:20.180Z,95067.97
2023-03-19T03:41:48.053Z,95063.72
2023-03-19T03:44:15.942Z,95055.28
2023-03-19T03:46:44.612Z,95068.75
2023-03-19T03:49:12.509Z,95072.78
2023-03-19T03:51:42.160Z,95060.03
2023-03-19T03:54:10.053Z,95072.91
2023-03-19T03:56:37.957Z,95074.13
2023-03-19T03:59:05.994Z,95077.97
2023-03-19T04:01:34.061Z,95078.34
2023-03-19T04:04:02.037Z,95073.06
2023-03-19T04:06:30.345Z,95053.75
2023-03-19T04:08:59.679Z,95045.28
2023-03-19T04:11:27.763Z,95060.94
2023-03-19T04:13:56.667Z,95058.41
2023-03-19T04:16:24.926Z,95066.69
2023-03-19T04:18:52.870Z,95061.78
2023-03-19T04:21:21.384Z,95064.78
2023-03-19T04:23:49.407Z,95064.88
2023-03-19T04:26:18.951Z,95061.22
2023-03-19T04:28:47.197Z,95069.47
2023-03-19T04:31:15.489Z,95064.34
2023-03-19T04:33:43.465Z,95065.16
2023-03-19T04:36:11.998Z,95049.56
2023-03-19T04:38:39.894Z,95035.00
2023-03-19T04:41:07.764Z,95082.56
2023-03-19T04:43:37.088Z,95083.00
2023-03-19T04:46:05.851Z,95072.34
2023-03-19T04:48:33.832Z,95074.94
2023-03-19T04:51:03.075Z,95080.91
2023-03-19T04:53:31.401Z,95079.91
2023-03-19T04:55:59.332Z,95073.50
2023-03-19T04:58:27.650Z,95077.50
2023-03-19T05:00:56.924Z,95080.09
2023-03-19T05:03:26.258Z,95071.94
2023-03-19T05:05:55.271Z,95068.69
2023-03-19T05:08:23.194Z,95078.94
2023-03-19T05:10:51.077Z,95062.03
2023-03-19T05:13:21.531Z,95078.44
2023-03-19T05:15:49.879Z,95060.69
2023-03-19T05:18:19.395Z,95071.78
2023-03-19T05:20:47.369Z,95084.72
2023-03-19T05:23:15.370Z,95082.34
2023-03-19T05:25:43.608Z,95082.69
2023-03-19T05:28:11.601Z,95082.16
2023-03-19T05:30:39.485Z,95079.22
2023-03-19T05:33:07.423Z,95068.03
2023-03-19T05:35:38.070Z,95081.69
2023-03-19T05:38:06.430Z,95070.72
2023-03-19T05:40:35.080Z,95069.09
2023-03-19T05:43:03.174Z,95087.94
2023-03-19T05:45:31.218Z,95082.13
2023-03-19T05:47:59.170Z,95091.41
2023-03-19T05:50:27.176Z,95086.00
2023-03-19T05:52:56.738Z,95090.50
2023-03-19T05:55:24.666Z,95099.31
2023-03-19T05:57:53.371Z,95096.53
2023-03-19T06:00:22.177Z,95090.59
2023-03-19T06:02:52.226Z,95091.72
2023-03-19T06:05:20.138Z,95091.28
2023-03-19T06:07:51.049Z,95077.66
2023-03-19T06:10:21.361Z,95078.25
2023-03-19T06:12:49.250Z,95084.91
2023-03-19T06:15:17.685Z,95086.81
2023-03-19T06:17:45.901Z,95087.31
2023-03-19T06:20:14.554Z,95072.16
2023-03-19T06:22:44.049Z,95084.09
2023-03-19T06:25:12.181Z,95087.88
2023-03-19T06:27:41.445Z,95090.38
2023-03-19T06:30:10.687Z,95091.72
2023-03-19T06:32:38.763Z,95092.22
2023-03-19T06:35:08.662Z,95089.91
2023-03-19T06:37:36.544Z,95102.06
2023-03-19T06:40:05.062Z,95094.81
2023-03-19T06:42:33.061Z,95100.94
2023-03-19T06:45:02.564Z,95098.13
2023-03-19T06:47:31.130Z,95093.03
2023-03-19T06:49:59.815Z,95115.72
2023-03-19T06:52:27.815Z,95111.56
2023-03-19T06:54:55.935Z,95095.34
2023-03-19T06:57:23.806Z,95122.09
2023-03-19T06:59:51.838Z,95124.00
2023-03-19T07:02:21.091Z,95124.09
2023-03-19T07:04:48.991Z,95120.94
2023-03-19T07:07:16.876Z,95109.63
2023-03-19T07:10:01.223Z,95094.19
2023-03-19T07:12:31.312Z,95123.53
2023-03-19T07:14:59.219Z,95096.69
2023-03-19T07:17:28.515Z,95122.97
2023-03-19T07:19:56.389Z,95116.41
2023-03-19T07:22:24.276Z,95099.34
2023-03-19T07:24:52.596Z,95121.78
2023-03-19T07:27:21.018Z,95117.22
2023-03-19T07:29:48.937Z,95109.97
2023-03-19T07:32:17.369Z,95097.22
2023-03-19T07:34:46.664Z,95109.28
2023-03-19T07:37:14.527Z,95112.63
2023-03-19T07:39:42.452Z,95106.41
2023-03-19T07:42:10.490Z,95113.44
2023-03-19T07:44:38.406Z,95107.81
2023-03-19T07:47:08.199Z,95115.94
2023-03-19T07:49:41.245Z,95116.50
2023-03-19T07:52:11.043Z,95088.06
2023-03-19T07:54:39.088Z,95117.78
2023-03-19T07:57:07.097Z,95105.66
2023-03-19T07:59:35.627Z,95116.09
2023-03-19T08:02:03.577Z,95115.16
2023-03-19T08:04:31.739Z,95115.97
2023-03-19T08:06:59.714Z,95109.13
2023-03-19T08:09:29.098Z,95107.31
2023-03-19T08:11:57.548Z,95109.84
2023-03-19T08:14:25.466Z,95114.34
2023-03-19T08:16:53.544Z,95117.13
2023-03-19T08:19:22.218Z,95109.13
2023-03-19T08:21:50.208Z,95095.81
2023-03-19T08:24:18.817Z,95084.84
2023-03-19T08:26:48.743Z,95097.53
2023-03-19T08:29:22.506Z,95102.16
2023-03-19T08:31:50.379Z,95101.63
2023-03-19T08:34:22.166Z,95104.91
2023-03-19T08:36:50.619Z,95099.75
2023-03-19T08:39:19.322Z,95106.03
2023-03-19T08:41:48.676Z,95106.16
2023-03-19T08:44:16.968Z,95091.59
2023-03-19T08:46:45.062Z,95097.72
2023-03-19T08:49:13.019Z,95100.31
2023-03-19T08:51:41.169Z,95088.06
2023-03-19T08:54:09.579Z,95066.75
2023-03-19T08:56:37.785Z,95065.00
2023-03-19T08:59:07.980Z,95064.03
2023-03-19T09:01:37.043Z,95087.00
2023-03-19T09:04:05.094Z,95072.28
2023-03-19T09:06:33.100Z,95076.88
2023-03-19T09:09:01.486Z,95064.34
2023-03-19T09:11:30.145Z,95064.69
2023-03-19T09:13:58.085Z,95041.41
2023-03-19T09:16:27.455Z,95046.09
2023-03-19T09:18:57.921Z,95061.28
2023-03-19T09:21:27.298Z,95060.34
2023-03-19T09:23:55.713Z,95041.78
2023-03-19T09:26:23.568Z,95062.81
2023-03-19T09:28:51.946Z,95058.03
2023-03-19T09:31:20.054Z,95054.38
2023-03-19T09:33:49.419Z,95058.78
2023-03-19T09:36:17.440Z,95031.69
2023-03-19T09:38:45.408Z,95045.34
2023-03-19T09:41:24.260Z,95050.09
2023-03-19T09:44:03.662Z,95035.78
2023-03-19T09:46:39.690Z,95057.00
2023-03-19T09:49:19.436Z,95041.72
2023-03-19T09:51:51.647Z,95049.25
2023-03-19T09:54:33.478Z,95046.13
2023-03-19T09:57:02.479Z,95036.91
2023-03-19T09:59:31.156Z,95031.78
2023-03-19T10:02:10.725Z,95024.19
2023-03-19T10:04:59.656Z,95028.00
2023-03-19T10:07:38.554Z,95013.31
2023-03-19T10:10:25.998Z,95015.69
2023-03-19T10:13:01.681Z,95018.22
2023-03-19T10:15:31.196Z,95018.91
2023-03-19T10:18:04.594Z,95012.53
2023-03-19T10:20:41.263Z,95010.22
2023-03-19T10:23:30.398Z,95005.75
2023-03-19T10:26:00.594Z,94997.63
2023-03-19T10:28:30.129Z,94987.88
2023-03-19T10:31:11.784Z,94967.28
2023-03-19T10:33:46.124Z,94963.75
2023-03-19T10:36:16.447Z,94976.34
2023-03-19T10:38:45.459Z,94972.72
2023-03-19T10:41:25.872Z,94959.13
2023-03-19T10:43:56.203Z,94976.28
2023-03-19T10:46:24.149Z,94961.50
2023-03-19T10:48:52.151Z,94960.72
2023-03-19T10:51:25.863Z,94934.09
2023-03-19T10:53:55.591Z,94945.91
2023-03-19T10:56:25.609Z,94938.97
2023-03-19T10:59:01.918Z,94937.41
2023-03-19T11:01:34.020Z,94929.16
2023-03-19T11:04:03.966Z,94927.06
2023-03-19T11:06:36.580Z,94925.25
2023-03-19T11:09:16.593Z,94904.41
2023-03-19T11:11:48.515Z,94906.28
2023-03-19T11:14:20.856Z,94912.28
2023-03-19T11:16:56.911Z,94898.44
2023-03-19T11:19:26.700Z,94876.00
2023-03-19T11:22:09.349Z,94892.22
2023-03-19T11:24:39.380Z,94891.47
2023-03-19T11:27:07.681Z,94885.25
2023-03-19T11:29:41.806Z,94879.91
2023-03-19T11:32:23.481Z,94878.94
2023-03-19T11:34:55.290Z,94869.91
2023-03-19T11:37:34.283Z,94864.97
2023-03-19T11:40:11.051Z,94860.53
2023-03-19T11:43:01.400Z,94859.97
2023-03-19T11:45:40.777Z,94861.00
2023-03-19T11:48:27.305Z,94842.22
2023-03-19T11:50:59.888Z,94855.34
2023-03-19T11:53:33.163Z,94841.63
2023-03-19T11:56:13.640Z,94838.63
2023-03-19T11:58:56.098Z,94835.69
2023-03-19T12:01:39.360Z,94838.56
2023-03-19T12:04:34.056Z,94837.00
2023-03-19T12:07:11.683Z,94826.09
2023-03-19T12:09:50.846Z,94826.63
2023-03-19T12:12:26.953Z,94814.53
2023-03-19T12:15:12.611Z,94821.91
2023-03-19T12:17:52.948Z,94801.53
2023-03-19T12:20:38.280Z,94806.31
2023-03-19T12:23:18.377Z,94804.91
2023-03-19T12:26:00.334Z,94809.16
2023-03-19T12:28:31.734Z,94806.88
2023-03-19T12:31:27.786Z,94792.75
2023-03-19T12:34:10.160Z,94801.88
2023-03-19T12:36:44.805Z,94794.00
2023-03-19T12:39:16.737Z,94798.78
2023-03-19T12:41:48.566Z,94790.94
2023-03-19T12:44:22.940Z,94789.97
2023-03-19T12:46:59.269Z,94782.44
2023-03-19T12:49:31.662Z,94787.34
2023-03-19T12:52:04.939Z,94782.53
2023-03-19T12:54:37.174Z,94773.88
2023-03-19T12:57:13.271Z,94774.88
2023-03-19T12:59:47.675Z,94762.34
2023-03-19T13:02:25.996Z,94761.94
2023-03-19T13:04:57.557Z,94763.41
2023-03-19T13:07:34.256Z,94756.28
2023-03-19T13:10:08.142Z,94763.25
2023-03-19T13:12:39.303Z,94759.28
2023-03-19T13:15:14.233Z,94756.97
2023-03-19T13:17:54.547Z,94753.66
2023-03-19T13:20:33.052Z,94754.19
2023-03-19T13:23:05.852Z,94751.28
2023-03-19T13:25:38.279Z,94737.38
2023-03-19T13:28:12.041Z,94750.25
2023-03-19T13:30:42.382Z,94744.88
2023-03-19T13:33:19.521Z,94737.69
2023-03-19T13:35:51.515Z,94731.78
2023-03-19T13:38:22.018Z,94732.81
2023-03-19T13:40:54.491Z,94727.16
2023-03-19T13:46:32.400Z,94741.41
2023-03-19T13:49:10.953Z,94734.44
2023-03-19T13:51:39.434Z,94728.69
2023-03-19T13:54:16.391Z,94725.31
2023-03-19T13:57:06.951Z,94708.31
2023-03-19T13:59:36.914Z,94720.97
2023-03-19T14:02:59.842Z,94719.00
2023-03-19T14:05:35.700Z,94714.94
2023-03-19T14:08:18.465Z,94713.75
2023-03-19T14:10:51.162Z,94713.44
2023-03-19T14:13:27.410Z,94705.00
2023-03-19T14:16:04.503Z,94703.34
2023-03-19T14:18:34.926Z,94702.72
2023-03-19T14:21:08.915Z,94705.69
2023-03-19T14:23:46.332Z,94692.34
2023-03-19T14:26:18.614Z,94690.66
2023-03-19T14:29:00.128Z,94695.00
2023-03-19T14:31:38.132Z,94705.50
2023-03-19T14:34:20.729Z,94707.19
2023-03-19T14:36:57.217Z,94695.84
2023-03-19T14:39:31.254Z,94683.94
2023-03-19T14:42:04.260Z,94703.28
2023-03-19T14:45:07.737Z,94699.09
2023-03-19T14:48:17.748Z,94694.03
2023-03-19T14:51:23.815Z,94690.88
2023-03-19T14:53:55.540Z,94689.91
2023-03-19T14:56:28.281Z,94691.19
2023-03-19T14:59:02.931Z,94692.75
2023-03-19T15:01:32.928Z,94683.06
2023-03-19T15:04:04.160Z,94678.47
2023-03-19T15:06:35.132Z,94685.56
2023-03-19T15:09:08.814Z,94683.25
2023-03-19T15:12:00.667Z,94685.25
2023-03-19T15:14:52.445Z,94693.22
2023-03-19T15:17:25.362Z,94695.09
2023-03-19T15:19:55.425Z,94684.72
2023-03-19T15:22:27.891Z,94693.00
2023-03-19T15:25:07.097Z,94694.19
2023-03-19T15:27:35.074Z,94688.19
2023-03-19T15:30:14.429Z,94702.38
2023-03-19T15:33:02.996Z,94699.44
2023-03-19T15:35:36.399Z,94693.59
2023-03-19T15:38:10.342Z,94696.34
2023-03-19T15:40:42.185Z,94685.97
2023-03-19T15:43:12.762Z,94699.63
2023-03-19T15:45:43.819Z,94696.56
2023-03-19T15:48:20.154Z,94685.53
2023-03-19T15:50:51.826Z,94704.13
2023-03-19T15:53:22.669Z,94692.22
2023-03-19T15:55:53.885Z,94695.31
2023-03-19T15:58:24.866Z,94698.84
2023-03-19T16:00:54.090Z,94679.94
2023-03-19T16:03:26.650Z,94704.63
2023-03-19T16:06:02.635Z,94690.97
2023-03-19T16:08:31.829Z,94708.56
2023-03-19T16:11:17.358Z,94670.97
2023-03-19T16:13:57.038Z,94719.25
2023-03-19T16:16:26.270Z,94721.09
2023-03-19T16:18:55.686Z,94715.34
2023-03-19T16:21:29.610Z,94714.25
2023-03-19T16:24:00.693Z,94709.44
2023-03-19T16:26:37.122Z,94714.75
2023-03-19T16:29:17.857Z,94719.00
2023-03-19T16:31:51.782Z,94718.28
2023-03-19T16:34:26.786Z,94710.66
2023-03-19T16:36:54.733Z,94712.47
2023-03-19T16:39:27.497Z,94723.81
2023-03-19T16:42:17.500Z,94714.41
2023-03-19T16:44:48.282Z,94698.09
2023-03-19T16:47:16.981Z,94714.28
2023-03-19T16:49:44.933Z,94719.72
2023-03-19T16:52:18.442Z,94726.75
2023-03-19T16:54:46.863Z,94706.31
2023-03-19T16:57:18.468Z,94730.28
2023-03-19T16:59:47.761Z,94735.09
2023-03-19T17:02:19.904Z,94722.28
2023-03-19T17:04:48.264Z,94733.47
2023-03-19T17:07:16.373Z,94735.06
2023-03-19T17:09:44.319Z,94744.75
2023-03-19T17:12:17.647Z,94737.66
2023-03-19T17:14:45.695Z,94741.03
2023-03-19T17:17:19.324Z,94743.88
2023-03-19T17:19:48.079Z,94744.28
2023-03-19T17:22:18.720Z,94750.41
2023-03-19T17:24:46.748Z,94755.09
2023-03-19T17:27:15.404Z,94721.09
2023-03-19T17:29:47.413Z,94719.16
2023-03-19T17:32:19.628Z,94725.19
2023-03-19T17:34:48.203Z,94744.19
2023-03-19T17:37:19.345Z,94734.53
2023-03-19T17:39:47.662Z,94745.72
2023-03-19T17:42:21.029Z,94744.16
2023-03-19T17:44:50.433Z,94750.03
2023-03-19T17:47:19.692Z,94752.63
2023-03-19T17:49:48.733Z,94766.03
2023-03-19T17:52:18.733Z,94759.22
2023-03-19T17:54:46.859Z,94763.53
2023-03-19T17:57:16.011Z,94765.41
2023-03-19T17:59:44.046Z,94771.28
2023-03-19T18:02:25.934Z,94748.56
2023-03-19T18:04:53.953Z,94766.88
2023-03-19T18:07:21.914Z,94763.81
2023-03-19T18:09:49.855Z,94746.47
2023-03-19T18:12:17.727Z,94772.75
2023-03-19T18:14:45.982Z,94777.78
2023-03-19T18:17:16.905Z,94779.59
2023-03-19T18:19:49.215Z,94762.25
2023-03-19T18:22:19.500Z,94777.25
2023-03-19T18:24:47.624Z,94778.06
2023-03-19T18:27:15.860Z,94776.81
2023-03-19T18:29:43.801Z,94788.69
2023-03-19T18:32:17.241Z,94770.06
2023-03-19T18:34:46.513Z,94796.66
2023-03-19T18:37:19.211Z,94801.41
2023-03-19T18:39:47.230Z,94809.22
2023-03-19T18:42:15.756Z,94803.22
2023-03-19T18:44:43.936Z,94811.59
2023-03-19T18:47:16.093Z,94776.84
2023-03-19T18:49:46.066Z,94810.13
2023-03-19T18:52:19.794Z,94785.75
2023-03-19T18:54:47.725Z,94822.81
2023-03-19T18:57:20.079Z,94824.88
2023-03-19T18:59:48.191Z,94822.34
2023-03-19T19:02:32.608Z,94822.41
2023-03-19T19:05:00.712Z,94826.22
2023-03-19T19:07:30.045Z,94824.47
2023-03-19T19:09:58.012Z,94828.13
2023-03-19T19:12:27.782Z,94806.50
2023-03-19T19:14:58.764Z,94823.50
2023-03-19T19:17:29.392Z,94840.00
2023-03-19T19:19:57.591Z,94836.13
2023-03-19T19:22:29.697Z,94841.63
2023-03-19T19:24:59.029Z,94841.66
2023-03-19T19:27:30.278Z,94808.28
2023-03-19T19:29:58.251Z,94817.63
2023-03-19T19:32:28.685Z,94834.69
2023-03-19T19:34:59.119Z,94836.97
2023-03-19T19:37:27.068Z,94839.09
2023-03-19T19:39:55.460Z,94845.50
2023-03-19T19:42:24.842Z,94844.38
2023-03-19T19:44:55.873Z,94838.56
2023-03-19T19:47:23.964Z,94843.78
2023-03-19T19:49:52.018Z,94851.97
2023-03-19T19:52:22.900Z,94843.88
2023-03-19T19:54:51.976Z,94840.63
2023-03-19T19:57:22.818Z,94845.97
2023-03-19T19:59:53.450Z,94845.97
2023-03-19T20:02:23.511Z,94822.44
2023-03-19T20:04:51.546Z,94848.06
2023-03-19T20:07:19.506Z,94816.91
2023-03-19T20:09:48.054Z,94836.72
2023-03-19T20:12:24.080Z,94847.94
2023-03-19T20:14:53.627Z,94845.47
2023-03-19T20:17:25.101Z,94831.84
2023-03-19T20:19:53.066Z,94825.38
2023-03-19T20:22:21.148Z,94838.06
2023-03-19T20:24:51.244Z,94863.03
2023-03-19T20:27:21.662Z,94868.72
2023-03-19T20:29:50.720Z,94861.91
2023-03-19T20:32:29.283Z,94868.88
2023-03-19T20:34:57.205Z,94881.19
2023-03-19T20:37:25.345Z,94876.19
2023-03-19T20:39:53.308Z,94885.59
2023-03-19T20:42:21.374Z,94891.09
2023-03-19T20:44:49.697Z,94865.59
2023-03-19T20:47:19.429Z,94890.91
2023-03-19T20:49:50.459Z,94884.88
2023-03-19T20:52:18.423Z,94884.88
2023-03-19T20:54:46.385Z,94884.72
2023-03-19T20:57:16.752Z,94891.50
2023-03-19T20:59:46.973Z,94892.84
2023-03-19T21:02:19.504Z,94881.78
2023-03-19T21:04:49.772Z,94897.69
2023-03-19T21:07:29.339Z,94876.41
2023-03-19T21:09:57.983Z,94871.53
2023-03-19T21:12:29.462Z,94900.28
2023-03-19T21:14:57.925Z,94895.44
2023-03-19T21:17:27.350Z,94898.81
2023-03-19T21:19:56.935Z,94902.34
2023-03-19T21:22:28.499Z,94903.63
2023-03-19T21:25:03.356Z,94896.13
2023-03-19T21:27:32.818Z,94896.47
2023-03-19T21:30:01.026Z,94899.63
2023-03-19T21:32:29.060Z,94902.97
2023-03-19T21:34:58.537Z,94885.13
2023-03-19T21:37:26.448Z,94893.81
2023-03-19T21:39:54.381Z,94890.38
2023-03-19T21:42:23.578Z,94890.38
2023-03-19T21:44:59.455Z,94896.41
2023-03-19T21:47:27.443Z,94895.28
2023-03-19T21:49:55.441Z,94874.13
2023-03-19T21:52:24.922Z,94899.16
2023-03-19T21:54:52.858Z,94875.19
2023-03-19T21:57:20.850Z,94898.41
2023-03-19T21:59:48.855Z,94894.94
2023-03-19T22:02:40.386Z,94901.78
2023-03-19T22:05:19.613Z,94902.22
2023-03-19T22:07:49.014Z,94893.22
2023-03-19T22:10:17.265Z,94892.22
2023-03-19T22:12:46.405Z,94893.78
2023-03-19T22:15:21.331Z,94883.47
2023-03-19T22:17:50.031Z,94886.03
2023-03-19T22:20:19.777Z,94895.88
2023-03-19T22:22:49.337Z,94889.31
2023-03-19T22:25:18.596Z,94886.78
2023-03-19T22:27:48.819Z,94896.91
2023-03-19T22:30:35.792Z,94896.53
2023-03-19T22:33:11.566Z,94892.28
2023-03-19T22:35:39.665Z,94891.81
2023-03-19T22:38:08.983Z,94883.47
2023-03-19T22:40:38.441Z,94886.00
2023-03-19T22:43:16.883Z,94877.28
2023-03-19T22:45:45.111Z,94893.44
2023-03-19T22:48:18.061Z,94895.22
2023-03-19T22:50:45.947Z,94888.09
2023-03-19T22:53:28.214Z,94880.72
2023-03-19T22:55:56.464Z,94885.06
2023-03-19T22:58:24.821Z,94888.16
2023-03-19T23:00:53.762Z,94875.22
2023-03-19T23:03:24.664Z,94884.16
2023-03-19T23:05:54.477Z,94884.78
2023-03-19T23:08:22.848Z,94879.91
2023-03-19T23:10:53.463Z,94886.97
2023-03-19T23:13:22.181Z,94875.47
2023-03-19T23:15:53.837Z,94886.03
2023-03-19T23:18:28.560Z,94886.31
2023-03-19T23:20:58.142Z,94891.72
2023-03-19T23:23:27.216Z,94888.47
2023-03-19T23:25:57.380Z,94894.59
2023-03-19T23:28:29.927Z,94875.34
2023-03-19T23:30:58.720Z,94896.75
2023-03-19T23:33:27.105Z,94890.47
2023-03-19T23:35:55.214Z,94881.00
2023-03-19T23:38:23.707Z,94886.25
2023-03-19T23:40:52.840Z,94885.41
2023-03-19T23:43:27.178Z,94884.41
2023-03-19T23:45:56.456Z,94894.69
2023-03-19T23:48:26.946Z,94875.69
2023-03-19T23:50:54.845Z,94887.06
2023-03-19T23:53:24.878Z,94868.66
2023-03-19T23:55:56.553Z,94879.00
2023-03-19T23:58:31.218Z,94860.72
